sensor_id;sensor_type;location;lat;lon;timestamp;pressure;altitude;pressure_sealevel;temperature;humidity
41102;BME280;26845;50.190;19.178;2022-10-28T00:00:05;99844.47;;;8.09;81.25
41102;BME280;26845;50.190;19.178;2022-10-28T00:02:32;99843.91;;;8.09;81.34
41102;BME280;26845;50.190;19.178;2022-10-28T00:04:58;99841.14;;;8.09;81.52
41102;BME280;26845;50.190;19.178;2022-10-28T00:07:23;99833.66;;;8.10;81.63
41102;BME280;26845;50.190;19.178;2022-10-28T00:09:49;99833.11;;;8.10;81.67
41102;BME280;26845;50.190;19.178;2022-10-28T00:12:14;99830.34;;;8.10;81.75
41102;BME280;26845;50.190;19.178;2022-10-28T00:14:40;99835.34;;;8.08;81.38
41102;BME280;26845;50.190;19.178;2022-10-28T00:17:06;99838.36;;;8.02;81.36
41102;BME280;26845;50.190;19.178;2022-10-28T00:19:31;99834.48;;;7.98;81.46
41102;BME280;26845;50.190;19.178;2022-10-28T00:21:57;99833.09;;;7.95;81.49
41102;BME280;26845;50.190;19.178;2022-10-28T00:24:22;99833.09;;;7.93;81.22
41102;BME280;26845;50.190;19.178;2022-10-28T00:26:48;99833.37;;;7.86;81.07
41102;BME280;26845;50.190;19.178;2022-10-28T00:29:16;99826.95;;;7.70;80.66
41102;BME280;26845;50.190;19.178;2022-10-28T00:31:43;99830.76;;;7.43;80.67
41102;BME280;26845;50.190;19.178;2022-10-28T00:34:15;99821.55;;;7.25;81.06
41102;BME280;26845;50.190;19.178;2022-10-28T00:36:47;99826.80;;;7.24;81.58
41102;BME280;26845;50.190;19.178;2022-10-28T00:39:14;99820.46;;;7.26;81.87
41102;BME280;26845;50.190;19.178;2022-10-28T00:41:44;99818.80;;;7.30;82.09
41102;BME280;26845;50.190;19.178;2022-10-28T00:44:51;99811.09;;;7.35;82.15
41102;BME280;26845;50.190;19.178;2022-10-28T00:50:08;99804.75;;;7.44;82.15
41102;BME280;26845;50.190;19.178;2022-10-28T00:52:58;99797.59;;;7.49;82.22
41102;BME280;26845;50.190;19.178;2022-10-28T00:55:23;99800.06;;;7.50;81.93
41102;BME280;26845;50.190;19.178;2022-10-28T00:57:52;99795.63;;;7.44;81.78
41102;BME280;26845;50.190;19.178;2022-10-28T01:00:22;99794.22;;;7.39;81.82
41102;BME280;26845;50.190;19.178;2022-10-28T01:02:49;99790.88;;;7.27;81.46
41102;BME280;26845;50.190;19.178;2022-10-28T01:05:24;99794.98;;;7.19;81.58
41102;BME280;26845;50.190;19.178;2022-10-28T01:07:45;99790.27;;;7.17;81.74
41102;BME280;26845;50.190;19.178;2022-10-28T01:10:12;99788.34;;;7.15;81.71
41102;BME280;26845;50.190;19.178;2022-10-28T01:15:36;99785.29;;;7.16;81.66
41102;BME280;26845;50.190;19.178;2022-10-28T01:18:09;99774.52;;;7.15;81.56
41102;BME280;26845;50.190;19.178;2022-10-28T01:26:43;99769.80;;;7.13;81.77
41102;BME280;26845;50.190;19.178;2022-10-28T01:32:09;99773.08;;;7.05;81.74
41102;BME280;26845;50.190;19.178;2022-10-28T01:43:49;99780.22;;;6.93;81.77
41102;BME280;26845;50.190;19.178;2022-10-28T01:46:44;99774.14;;;6.93;81.63
41102;BME280;26845;50.190;19.178;2022-10-28T01:48:58;99772.48;;;6.92;81.82
41102;BME280;26845;50.190;19.178;2022-10-28T01:51:36;99770.80;;;6.91;81.91
41102;BME280;26845;50.190;19.178;2022-10-28T01:54:02;99764.18;;;6.90;81.94
41102;BME280;26845;50.190;19.178;2022-10-28T01:56:30;99763.36;;;6.89;82.02
41102;BME280;26845;50.190;19.178;2022-10-28T01:58:59;99766.67;;;6.89;82.10
41102;BME280;26845;50.190;19.178;2022-10-28T02:01:28;99763.89;;;6.86;82.21
41102;BME280;26845;50.190;19.178;2022-10-28T02:03:55;99761.39;;;6.85;82.37
41102;BME280;26845;50.190;19.178;2022-10-28T02:06:24;99760.02;;;6.87;82.53
41102;BME280;26845;50.190;19.178;2022-10-28T02:09:01;99752.84;;;6.91;82.73
41102;BME280;26845;50.190;19.178;2022-10-28T02:14:16;99749.30;;;7.01;82.98
41102;BME280;26845;50.190;19.178;2022-10-28T02:27:46;99746.58;;;7.16;82.90
41102;BME280;26845;50.190;19.178;2022-10-28T02:33:37;99740.22;;;7.13;82.85
41102;BME280;26845;50.190;19.178;2022-10-28T02:36:11;99742.97;;;7.11;82.67
41102;BME280;26845;50.190;19.178;2022-10-28T02:38:49;99745.44;;;7.05;82.87
41102;BME280;26845;50.190;19.178;2022-10-28T02:41:24;99735.51;;;7.06;83.10
41102;BME280;26845;50.190;19.178;2022-10-28T02:44:10;99733.83;;;7.05;83.06
41102;BME280;26845;50.190;19.178;2022-10-28T02:46:41;99732.98;;;6.99;82.89
41102;BME280;26845;50.190;19.178;2022-10-28T02:49:10;99735.20;;;6.97;83.14
41102;BME280;26845;50.190;19.178;2022-10-28T02:51:56;99733.82;;;6.97;83.27
41102;BME280;26845;50.190;19.178;2022-10-28T02:54:35;99731.31;;;6.96;83.10
41102;BME280;26845;50.190;19.178;2022-10-28T02:57:17;99725.53;;;6.97;83.00
41102;BME280;26845;50.190;19.178;2022-10-28T02:59:56;99720.00;;;6.97;82.91
41102;BME280;26845;50.190;19.178;2022-10-28T03:02:24;99715.86;;;6.97;82.88
41102;BME280;26845;50.190;19.178;2022-10-28T03:04:50;99712.23;;;6.97;82.84
41102;BME280;26845;50.190;19.178;2022-10-28T03:07:16;99710.85;;;6.97;83.07
41102;BME280;26845;50.190;19.178;2022-10-28T03:09:42;99709.22;;;6.98;83.09
41102;BME280;26845;50.190;19.178;2022-10-28T03:12:07;99713.34;;;6.96;83.00
41102;BME280;26845;50.190;19.178;2022-10-28T03:14:33;99711.95;;;6.93;83.07
41102;BME280;26845;50.190;19.178;2022-10-28T03:16:59;99716.10;;;6.93;82.95
41102;BME280;26845;50.190;19.178;2022-10-28T03:19:24;99711.38;;;6.91;82.93
41102;BME280;26845;50.190;19.178;2022-10-28T03:21:50;99703.94;;;6.89;82.75
41102;BME280;26845;50.190;19.178;2022-10-28T03:24:15;99703.89;;;6.79;82.36
41102;BME280;26845;50.190;19.178;2022-10-28T03:26:41;99701.32;;;6.62;82.48
41102;BME280;26845;50.190;19.178;2022-10-28T03:29:07;99708.52;;;6.61;82.89
41102;BME280;26845;50.190;19.178;2022-10-28T03:31:33;99703.20;;;6.46;82.45
41102;BME280;26845;50.190;19.178;2022-10-28T03:33:58;99711.89;;;6.25;82.40
41102;BME280;26845;50.190;19.178;2022-10-28T03:36:24;99712.77;;;5.94;82.99
41102;BME280;26845;50.190;19.178;2022-10-28T03:38:50;99713.94;;;5.71;83.51
41102;BME280;26845;50.190;19.178;2022-10-28T03:41:16;99714.66;;;5.58;84.52
41102;BME280;26845;50.190;19.178;2022-10-28T03:43:41;99720.16;;;5.56;85.70
41102;BME280;26845;50.190;19.178;2022-10-28T03:46:07;99709.98;;;5.59;85.32
41102;BME280;26845;50.190;19.178;2022-10-28T03:48:33;99710.91;;;5.70;85.32
41102;BME280;26845;50.190;19.178;2022-10-28T03:50:58;99710.95;;;5.77;85.09
41102;BME280;26845;50.190;19.178;2022-10-28T03:53:24;99703.02;;;5.86;85.50
41102;BME280;26845;50.190;19.178;2022-10-28T03:55:55;99700.11;;;5.95;85.62
41102;BME280;26845;50.190;19.178;2022-10-28T03:58:22;99690.19;;;5.99;85.82
41102;BME280;26845;50.190;19.178;2022-10-28T04:00:49;99692.44;;;6.05;86.03
41102;BME280;26845;50.190;19.178;2022-10-28T04:03:17;99691.67;;;6.12;86.00
41102;BME280;26845;50.190;19.178;2022-10-28T04:05:44;99694.15;;;6.14;85.64
41102;BME280;26845;50.190;19.178;2022-10-28T04:08:12;99691.41;;;6.16;85.42
41102;BME280;26845;50.190;19.178;2022-10-28T04:10:38;99683.97;;;6.19;85.67
41102;BME280;26845;50.190;19.178;2022-10-28T04:13:04;99690.64;;;6.23;85.68
41102;BME280;26845;50.190;19.178;2022-10-28T04:15:31;99701.36;;;6.20;85.36
41102;BME280;26845;50.190;19.178;2022-10-28T04:17:57;99713.25;;;6.23;85.56
41102;BME280;26845;50.190;19.178;2022-10-28T04:20:23;99701.95;;;6.24;85.38
41102;BME280;26845;50.190;19.178;2022-10-28T04:22:50;99697.83;;;6.27;85.36
41102;BME280;26845;50.190;19.178;2022-10-28T04:25:16;99692.86;;;6.26;85.56
41102;BME280;26845;50.190;19.178;2022-10-28T04:27:45;99691.79;;;6.33;85.87
41102;BME280;26845;50.190;19.178;2022-10-28T04:30:12;99695.13;;;6.40;85.97
41102;BME280;26845;50.190;19.178;2022-10-28T04:32:40;99703.17;;;6.44;85.75
41102;BME280;26845;50.190;19.178;2022-10-28T04:35:06;99708.70;;;6.44;85.72
41102;BME280;26845;50.190;19.178;2022-10-28T04:37:33;99693.52;;;6.44;85.67
41102;BME280;26845;50.190;19.178;2022-10-28T04:39:58;99686.63;;;6.46;85.77
41102;BME280;26845;50.190;19.178;2022-10-28T04:42:24;99680.56;;;6.49;85.81
41102;BME280;26845;50.190;19.178;2022-10-28T04:44:49;99667.83;;;6.48;85.77
41102;BME280;26845;50.190;19.178;2022-10-28T04:47:16;99672.55;;;6.50;85.87
41102;BME280;26845;50.190;19.178;2022-10-28T04:49:45;99676.44;;;6.57;86.02
41102;BME280;26845;50.190;19.178;2022-10-28T04:52:10;99672.87;;;6.62;85.94
41102;BME280;26845;50.190;19.178;2022-10-28T04:54:37;99677.84;;;6.62;86.00
41102;BME280;26845;50.190;19.178;2022-10-28T04:57:03;99677.86;;;6.65;85.90
41102;BME280;26845;50.190;19.178;2022-10-28T04:59:29;99681.75;;;6.66;85.69
41102;BME280;26845;50.190;19.178;2022-10-28T05:01:54;99678.70;;;6.68;85.60
41102;BME280;26845;50.190;19.178;2022-10-28T05:04:20;99687.27;;;6.71;85.51
41102;BME280;26845;50.190;19.178;2022-10-28T05:06:46;99686.74;;;6.72;85.32
41102;BME280;26845;50.190;19.178;2022-10-28T05:09:12;99691.43;;;6.69;85.23
41102;BME280;26845;50.190;19.178;2022-10-28T05:11:38;99687.28;;;6.69;85.47
41102;BME280;26845;50.190;19.178;2022-10-28T05:14:05;99696.67;;;6.70;85.55
41102;BME280;26845;50.190;19.178;2022-10-28T05:16:31;99687.81;;;6.68;85.39
41102;BME280;26845;50.190;19.178;2022-10-28T05:18:57;99677.30;;;6.65;85.36
41102;BME280;26845;50.190;19.178;2022-10-28T05:21:26;99681.72;;;6.61;85.25
41102;BME280;26845;50.190;19.178;2022-10-28T05:23:52;99674.27;;;6.64;85.41
41102;BME280;26845;50.190;19.178;2022-10-28T05:26:18;99672.34;;;6.67;85.47
41102;BME280;26845;50.190;19.178;2022-10-28T05:28:48;99672.36;;;6.70;85.59
41102;BME280;26845;50.190;19.178;2022-10-28T05:31:17;99668.78;;;6.72;85.58
41102;BME280;26845;50.190;19.178;2022-10-28T05:33:43;99666.56;;;6.74;85.48
41102;BME280;26845;50.190;19.178;2022-10-28T05:36:09;99662.96;;;6.71;85.30
41102;BME280;26845;50.190;19.178;2022-10-28T05:38:35;99661.05;;;6.69;85.28
41102;BME280;26845;50.190;19.178;2022-10-28T05:41:01;99660.47;;;6.67;85.21
41102;BME280;26845;50.190;19.178;2022-10-28T05:43:27;99661.03;;;6.66;85.13
41102;BME280;26845;50.190;19.178;2022-10-28T05:45:54;99657.16;;;6.67;85.11
41102;BME280;26845;50.190;19.178;2022-10-28T05:48:20;99671.22;;;6.66;85.01
41102;BME280;26845;50.190;19.178;2022-10-28T05:50:46;99674.83;;;6.64;85.01
41102;BME280;26845;50.190;19.178;2022-10-28T05:53:13;99671.77;;;6.63;85.09
41102;BME280;26845;50.190;19.178;2022-10-28T05:55:38;99670.09;;;6.59;85.07
41102;BME280;26845;50.190;19.178;2022-10-28T05:58:04;99674.77;;;6.53;85.01
41102;BME280;26845;50.190;19.178;2022-10-28T06:00:30;99675.58;;;6.46;85.07
41102;BME280;26845;50.190;19.178;2022-10-28T06:03:02;99674.73;;;6.43;85.06
41102;BME280;26845;50.190;19.178;2022-10-28T06:05:32;99682.45;;;6.41;85.06
41102;BME280;26845;50.190;19.178;2022-10-28T06:07:58;99683.28;;;6.42;85.14
41102;BME280;26845;50.190;19.178;2022-10-28T06:10:23;99677.75;;;6.42;85.11
41102;BME280;26845;50.190;19.178;2022-10-28T06:12:49;99682.16;;;6.38;85.08
41102;BME280;26845;50.190;19.178;2022-10-28T06:15:15;99678.83;;;6.36;85.27
41102;BME280;26845;50.190;19.178;2022-10-28T06:17:40;99677.16;;;6.37;85.42
41102;BME280;26845;50.190;19.178;2022-10-28T06:20:06;99673.59;;;6.39;85.44
41102;BME280;26845;50.190;19.178;2022-10-28T06:22:33;99674.99;;;6.42;85.51
41102;BME280;26845;50.190;19.178;2022-10-28T06:25:00;99674.20;;;6.46;85.64
41102;BME280;26845;50.190;19.178;2022-10-28T06:27:26;99669.55;;;6.55;85.71
41102;BME280;26845;50.190;19.178;2022-10-28T06:29:52;99677.00;;;6.59;85.64
41102;BME280;26845;50.190;19.178;2022-10-28T06:32:19;99671.51;;;6.64;85.79
41102;BME280;26845;50.190;19.178;2022-10-28T06:34:47;99670.71;;;6.69;85.85
41102;BME280;26845;50.190;19.178;2022-10-28T06:37:14;99668.22;;;6.70;85.79
41102;BME280;26845;50.190;19.178;2022-10-28T06:39:40;99679.52;;;6.68;85.71
41102;BME280;26845;50.190;19.178;2022-10-28T06:42:08;99680.36;;;6.66;85.70
41102;BME280;26845;50.190;19.178;2022-10-28T06:44:34;99690.26;;;6.60;85.67
41102;BME280;26845;50.190;19.178;2022-10-28T06:47:01;99682.81;;;6.58;85.82
41102;BME280;26845;50.190;19.178;2022-10-28T06:49:27;99688.64;;;6.64;86.15
41102;BME280;26845;50.190;19.178;2022-10-28T06:51:54;99687.55;;;6.70;86.30
41102;BME280;26845;50.190;19.178;2022-10-28T06:54:20;99684.55;;;6.79;86.99
41102;BME280;26845;50.190;19.178;2022-10-28T06:56:46;99691.76;;;6.88;87.02
41102;BME280;26845;50.190;19.178;2022-10-28T06:59:12;99694.29;;;6.94;86.82
41102;BME280;26845;50.190;19.178;2022-10-28T07:01:37;99701.75;;;6.99;86.77
41102;BME280;26845;50.190;19.178;2022-10-28T07:04:03;99702.88;;;7.08;86.81
41102;BME280;26845;50.190;19.178;2022-10-28T07:06:29;99704.58;;;7.14;86.79
41102;BME280;26845;50.190;19.178;2022-10-28T07:08:55;99709.28;;;7.21;86.83
41102;BME280;26845;50.190;19.178;2022-10-28T07:11:21;99712.05;;;7.21;86.80
41102;BME280;26845;50.190;19.178;2022-10-28T07:13:46;99707.91;;;7.24;87.11
41102;BME280;26845;50.190;19.178;2022-10-28T07:16:12;99711.25;;;7.29;87.11
41102;BME280;26845;50.190;19.178;2022-10-28T07:18:38;99712.08;;;7.32;87.16
41102;BME280;26845;50.190;19.178;2022-10-28T07:21:03;99712.92;;;7.37;87.44
41102;BME280;26845;50.190;19.178;2022-10-28T07:23:29;99709.88;;;7.44;87.51
41102;BME280;26845;50.190;19.178;2022-10-28T07:25:57;99712.12;;;7.55;87.88
41102;BME280;26845;50.190;19.178;2022-10-28T07:28:24;99709.34;;;7.68;88.06
41102;BME280;26845;50.190;19.178;2022-10-28T07:30:50;99707.16;;;7.80;88.17
41102;BME280;26845;50.190;19.178;2022-10-28T07:33:16;99716.54;;;7.97;88.21
41102;BME280;26845;50.190;19.178;2022-10-28T07:35:42;99712.95;;;8.09;88.15
41102;BME280;26845;50.190;19.178;2022-10-28T07:38:09;99712.39;;;8.20;88.07
41102;BME280;26845;50.190;19.178;2022-10-28T07:40:35;99714.04;;;8.28;88.10
41102;BME280;26845;50.190;19.178;2022-10-28T07:43:02;99704.60;;;8.37;88.12
41102;BME280;26845;50.190;19.178;2022-10-28T07:45:27;99707.93;;;8.44;88.10
41102;BME280;26845;50.190;19.178;2022-10-28T07:47:53;99698.78;;;8.49;88.10
41102;BME280;26845;50.190;19.178;2022-10-28T07:50:19;99695.44;;;8.60;88.28
41102;BME280;26845;50.190;19.178;2022-10-28T07:52:44;99695.68;;;8.68;88.35
41102;BME280;26845;50.190;19.178;2022-10-28T07:55:10;99694.80;;;8.78;88.52
41102;BME280;26845;50.190;19.178;2022-10-28T07:57:36;99685.64;;;8.83;88.89
41102;BME280;26845;50.190;19.178;2022-10-28T08:00:04;99690.03;;;8.94;89.51
41102;BME280;26845;50.190;19.178;2022-10-28T08:02:30;99686.05;;;9.08;90.03
41102;BME280;26845;50.190;19.178;2022-10-28T08:04:56;99680.94;;;9.30;90.44
41102;BME280;26845;50.190;19.178;2022-10-28T08:07:23;99682.13;;;9.58;90.68
41102;BME280;26845;50.190;19.178;2022-10-28T08:09:51;99683.84;;;9.88;90.71
41102;BME280;26845;50.190;19.178;2022-10-28T08:12:17;99684.16;;;10.16;90.86
41102;BME280;26845;50.190;19.178;2022-10-28T08:14:43;99681.17;;;10.39;90.53
41102;BME280;26845;50.190;19.178;2022-10-28T08:17:09;99685.13;;;10.57;90.43
41102;BME280;26845;50.190;19.178;2022-10-28T08:19:35;99684.83;;;10.83;90.83
41102;BME280;26845;50.190;19.178;2022-10-28T08:22:02;99676.53;;;11.01;90.49
41102;BME280;26845;50.190;19.178;2022-10-28T08:24:28;99677.60;;;11.24;90.57
41102;BME280;26845;50.190;19.178;2022-10-28T08:26:53;99672.45;;;11.53;90.35
41102;BME280;26845;50.190;19.178;2022-10-28T08:29:19;99670.28;;;11.85;90.35
41102;BME280;26845;50.190;19.178;2022-10-28T08:31:45;99675.66;;;12.12;90.27
41102;BME280;26845;50.190;19.178;2022-10-28T08:34:10;99673.45;;;12.42;90.00
41102;BME280;26845;50.190;19.178;2022-10-28T08:36:36;99662.38;;;12.67;89.75
41102;BME280;26845;50.190;19.178;2022-10-28T08:39:02;99658.73;;;12.94;89.25
41102;BME280;26845;50.190;19.178;2022-10-28T08:50:12;99668.81;;;14.44;88.02
41102;BME280;26845;50.190;19.178;2022-10-28T08:52:47;99659.88;;;14.64;87.45
41102;BME280;26845;50.190;19.178;2022-10-28T08:55:23;99665.25;;;14.92;86.34
41102;BME280;26845;50.190;19.178;2022-10-28T08:58:01;99662.05;;;15.04;85.77
41102;BME280;26845;50.190;19.178;2022-10-28T09:00:36;99658.08;;;15.25;85.94
41102;BME280;26845;50.190;19.178;2022-10-28T09:03:15;99655.76;;;15.36;86.35
41102;BME280;26845;50.190;19.178;2022-10-28T09:05:46;99659.97;;;15.53;85.86
41102;BME280;26845;50.190;19.178;2022-10-28T09:08:22;99660.84;;;15.71;83.54
41102;BME280;26845;50.190;19.178;2022-10-28T09:14:20;99658.69;;;15.86;85.11
41102;BME280;26845;50.190;19.178;2022-10-28T09:17:04;99654.97;;;16.29;84.64
41102;BME280;26845;50.190;19.178;2022-10-28T09:19:48;99647.20;;;16.34;83.86
41102;BME280;26845;50.190;19.178;2022-10-28T09:36:00;99641.88;;;16.89;82.56
41102;BME280;26845;50.190;19.178;2022-10-28T09:38:33;99636.59;;;17.17;83.16
41102;BME280;26845;50.190;19.178;2022-10-28T09:41:09;99635.77;;;17.58;83.60
41102;BME280;26845;50.190;19.178;2022-10-28T09:44:23;99639.86;;;18.03;82.65
41102;BME280;26845;50.190;19.178;2022-10-28T09:46:15;99636.16;;;18.23;81.99
41102;BME280;26845;50.190;19.178;2022-10-28T09:48:47;99637.25;;;18.43;81.80
41102;BME280;26845;50.190;19.178;2022-10-28T09:51:30;99638.77;;;18.40;79.25
41102;BME280;26845;50.190;19.178;2022-10-28T09:54:11;99644.98;;;18.28;78.13
41102;BME280;26845;50.190;19.178;2022-10-28T09:56:38;99643.29;;;18.14;79.15
41102;BME280;26845;50.190;19.178;2022-10-28T09:59:05;99639.47;;;18.31;80.19
41102;BME280;26845;50.190;19.178;2022-10-28T10:01:36;99643.70;;;18.50;77.18
41102;BME280;26845;50.190;19.178;2022-10-28T10:04:11;99639.97;;;18.58;78.59
41102;BME280;26845;50.190;19.178;2022-10-28T10:06:44;99636.81;;;18.72;77.30
41102;BME280;26845;50.190;19.178;2022-10-28T10:09:20;99642.36;;;18.80;77.36
41102;BME280;26845;50.190;19.178;2022-10-28T10:11:48;99643.18;;;18.81;77.58
41102;BME280;26845;50.190;19.178;2022-10-28T10:14:29;99632.77;;;18.81;73.59
41102;BME280;26845;50.190;19.178;2022-10-28T10:16:59;99627.36;;;18.76;74.35
41102;BME280;26845;50.190;19.178;2022-10-28T10:20:07;99639.41;;;18.71;72.79
41102;BME280;26845;50.190;19.178;2022-10-28T10:22:44;99632.51;;;18.80;75.86
41102;BME280;26845;50.190;19.178;2022-10-28T10:28:02;99632.27;;;19.10;72.70
41102;BME280;26845;50.190;19.178;2022-10-28T10:30:32;99625.91;;;19.19;75.56
41102;BME280;26845;50.190;19.178;2022-10-28T10:33:01;99624.44;;;19.50;74.61
41102;BME280;26845;50.190;19.178;2022-10-28T10:35:35;99624.30;;;19.59;73.49
41102;BME280;26845;50.190;19.178;2022-10-28T10:38:04;99623.72;;;19.53;73.35
41102;BME280;26845;50.190;19.178;2022-10-28T10:40:37;99616.55;;;19.55;73.40
41102;BME280;26845;50.190;19.178;2022-10-28T10:46:12;99611.63;;;19.52;71.65
41102;BME280;26845;50.190;19.178;2022-10-28T10:48:41;99625.30;;;19.38;71.56
41102;BME280;26845;50.190;19.178;2022-10-28T10:51:22;99618.16;;;19.22;72.86
41102;BME280;26845;50.190;19.178;2022-10-28T10:53:53;99616.11;;;19.35;72.84
41102;BME280;26845;50.190;19.178;2022-10-28T10:56:23;99614.89;;;19.54;73.09
41102;BME280;26845;50.190;19.178;2022-10-28T10:58:58;99615.14;;;19.55;68.49
41102;BME280;26845;50.190;19.178;2022-10-28T11:01:33;99615.75;;;19.43;71.74
41102;BME280;26845;50.190;19.178;2022-10-28T11:04:03;99620.59;;;19.36;69.19
41102;BME280;26845;50.190;19.178;2022-10-28T11:06:35;99616.37;;;19.36;69.79
41102;BME280;26845;50.190;19.178;2022-10-28T11:09:42;99612.02;;;19.39;70.23
41102;BME280;26845;50.190;19.178;2022-10-28T11:11:47;99608.95;;;19.38;70.03
41102;BME280;26845;50.190;19.178;2022-10-28T11:16:57;99608.24;;;19.47;67.52
41102;BME280;26845;50.190;19.178;2022-10-28T11:19:32;99607.72;;;19.57;66.88
41102;BME280;26845;50.190;19.178;2022-10-28T11:36:39;99601.17;;;20.63;67.87
41102;BME280;26845;50.190;19.178;2022-10-28T11:56:08;99587.38;;;21.09;63.62
41102;BME280;26845;50.190;19.178;2022-10-28T11:58:56;99593.63;;;21.18;64.61
41102;BME280;26845;50.190;19.178;2022-10-28T12:04:19;99585.50;;;21.42;63.10
41102;BME280;26845;50.190;19.178;2022-10-28T12:22:32;99567.03;;;19.98;63.31
41102;BME280;26845;50.190;19.178;2022-10-28T12:24:20;99575.64;;;19.62;63.22
41102;BME280;26845;50.190;19.178;2022-10-28T12:26:50;99568.82;;;19.28;63.60
41102;BME280;26845;50.190;19.178;2022-10-28T12:29:27;99577.91;;;19.03;64.02
41102;BME280;26845;50.190;19.178;2022-10-28T12:37:18;99563.55;;;19.21;65.31
41102;BME280;26845;50.190;19.178;2022-10-28T12:39:54;99561.35;;;19.48;65.09
41102;BME280;26845;50.190;19.178;2022-10-28T12:42:30;99559.91;;;19.54;65.04
41102;BME280;26845;50.190;19.178;2022-10-28T12:45:07;99561.58;;;19.49;64.68
41102;BME280;26845;50.190;19.178;2022-10-28T12:56:17;99554.00;;;19.94;64.46
41102;BME280;26845;50.190;19.178;2022-10-28T12:59:00;99544.20;;;20.19;64.07
41102;BME280;26845;50.190;19.178;2022-10-28T13:01:30;99552.27;;;20.27;63.59
41102;BME280;26845;50.190;19.178;2022-10-28T13:03:58;99553.25;;;20.35;63.32
41102;BME280;26845;50.190;19.178;2022-10-28T13:27:30;99537.80;;;19.69;62.47
41102;BME280;26845;50.190;19.178;2022-10-28T13:29:58;99551.42;;;19.39;62.93
41102;BME280;26845;50.190;19.178;2022-10-28T13:32:35;99537.97;;;19.20;63.84
41102;BME280;26845;50.190;19.178;2022-10-28T13:35:26;99541.97;;;19.19;64.47
41102;BME280;26845;50.190;19.178;2022-10-28T13:37:49;99539.58;;;19.33;64.47
41102;BME280;26845;50.190;19.178;2022-10-28T13:43:14;99539.87;;;19.50;64.26
41102;BME280;26845;50.190;19.178;2022-10-28T13:45:51;99540.17;;;19.67;64.79
41102;BME280;26845;50.190;19.178;2022-10-28T13:56:35;99529.84;;;20.03;65.25
41102;BME280;26845;50.190;19.178;2022-10-28T14:04:32;99535.48;;;19.87;64.35
41102;BME280;26845;50.190;19.178;2022-10-28T14:09:43;99539.45;;;19.64;64.70
41102;BME280;26845;50.190;19.178;2022-10-28T14:15:16;99539.52;;;19.45;64.50
41102;BME280;26845;50.190;19.178;2022-10-28T14:22:57;99533.87;;;19.17;65.86
41102;BME280;26845;50.190;19.178;2022-10-28T14:36:24;99526.81;;;19.51;66.05
41102;BME280;26845;50.190;19.178;2022-10-28T14:42:34;99520.57;;;19.30;66.00
41102;BME280;26845;50.190;19.178;2022-10-28T14:50:46;99513.27;;;19.29;66.73
41102;BME280;26845;50.190;19.178;2022-10-28T14:53:23;99517.12;;;19.37;66.80
41102;BME280;26845;50.190;19.178;2022-10-28T14:58:30;99519.72;;;19.29;66.43
41102;BME280;26845;50.190;19.178;2022-10-28T15:01:30;99512.76;;;19.11;66.62
41102;BME280;26845;50.190;19.178;2022-10-28T15:03:59;99508.02;;;18.87;66.61
41102;BME280;26845;50.190;19.178;2022-10-28T15:06:28;99508.97;;;18.48;67.02
41102;BME280;26845;50.190;19.178;2022-10-28T15:09:02;99502.08;;;18.27;67.24
41102;BME280;26845;50.190;19.178;2022-10-28T15:11:31;99503.23;;;18.08;67.52
41102;BME280;26845;50.190;19.178;2022-10-28T15:14:11;99507.52;;;17.93;67.72
41102;BME280;26845;50.190;19.178;2022-10-28T15:16:46;99508.80;;;17.83;68.03
41102;BME280;26845;50.190;19.178;2022-10-28T15:19:16;99508.70;;;17.59;68.04
41102;BME280;26845;50.190;19.178;2022-10-28T15:25:01;99506.43;;;17.40;68.60
41102;BME280;26845;50.190;19.178;2022-10-28T15:27:34;99501.25;;;17.36;68.91
41102;BME280;26845;50.190;19.178;2022-10-28T15:30:02;99500.39;;;17.23;69.04
41102;BME280;26845;50.190;19.178;2022-10-28T15:32:33;99510.20;;;17.17;69.21
41102;BME280;26845;50.190;19.178;2022-10-28T15:38:01;99510.48;;;17.03;69.28
41102;BME280;26845;50.190;19.178;2022-10-28T15:40:32;99500.62;;;16.97;69.42
41102;BME280;26845;50.190;19.178;2022-10-28T15:43:05;99505.52;;;16.94;69.76
41102;BME280;26845;50.190;19.178;2022-10-28T15:45:34;99503.63;;;16.92;69.90
41102;BME280;26845;50.190;19.178;2022-10-28T15:48:01;99508.27;;;16.88;70.05
41102;BME280;26845;50.190;19.178;2022-10-28T15:50:33;99507.64;;;16.82;70.20
41102;BME280;26845;50.190;19.178;2022-10-28T15:55:45;99516.94;;;16.59;70.31
41102;BME280;26845;50.190;19.178;2022-10-28T16:00:53;99526.74;;;16.00;70.62
41102;BME280;26845;50.190;19.178;2022-10-28T16:03:43;99531.62;;;15.88;71.02
41102;BME280;26845;50.190;19.178;2022-10-28T16:06:37;99535.32;;;15.71;71.10
41102;BME280;26845;50.190;19.178;2022-10-28T16:11:43;99520.47;;;15.53;71.89
41102;BME280;26845;50.190;19.178;2022-10-28T16:17:10;99517.54;;;15.41;72.06
41102;BME280;26845;50.190;19.178;2022-10-28T16:19:51;99518.88;;;15.26;72.45
41102;BME280;26845;50.190;19.178;2022-10-28T16:22:20;99511.39;;;15.15;72.64
41102;BME280;26845;50.190;19.178;2022-10-28T16:24:49;99514.42;;;15.07;72.89
41102;BME280;26845;50.190;19.178;2022-10-28T16:29:47;99518.31;;;14.92;73.35
41102;BME280;26845;50.190;19.178;2022-10-28T16:32:14;99519.20;;;14.90;73.57
41102;BME280;26845;50.190;19.178;2022-10-28T16:34:41;99517.06;;;14.87;73.45
41102;BME280;26845;50.190;19.178;2022-10-28T16:37:28;99509.33;;;14.83;73.68
41102;BME280;26845;50.190;19.178;2022-10-28T16:39:47;99517.22;;;14.81;73.56
41102;BME280;26845;50.190;19.178;2022-10-28T16:42:13;99514.77;;;14.80;73.97
41102;BME280;26845;50.190;19.178;2022-10-28T16:44:39;99524.86;;;14.70;73.48
41102;BME280;26845;50.190;19.178;2022-10-28T16:47:13;99519.84;;;14.60;74.02
41102;BME280;26845;50.190;19.178;2022-10-28T16:49:40;99514.39;;;14.55;74.12
41102;BME280;26845;50.190;19.178;2022-10-28T16:52:13;99512.36;;;14.47;74.38
41102;BME280;26845;50.190;19.178;2022-10-28T16:54:45;99513.91;;;14.42;74.49
41102;BME280;26845;50.190;19.178;2022-10-28T16:57:11;99503.52;;;14.34;74.67